New Laguna, New Mexico
Current Conditions -  °F | °C
As of 8:16 AM on Thursday 30 Oct 2014 (Local Time) from KGNT Reporting Station
Clear Clear  
Wind Chill: 18°   Ceiling: Unl
Heat Index: 28°   Visibility: 10mi
Dew Point: 12°   Wind: 13mph
Humidity: 51%   Direction: 310°NW
Pressure: 30.4"   Gusts: NA
Location:  35.04°N, 107.42°W
Report Text: KGNT 301416Z AUTO 31011KT 10SM CLR M02/M11 A3040 RMK AO2
Loading
Personal Weather Stations






























Interactive Weather Map
Tropical Storm Tracking
New forecast layout! Learn more

10-Day Weather Forecast

Advertisements
Track Severe Weather on mobile